Base Marambio Centro Met. Antartico, Antarctica
Current Conditions -  °F | °C
As of 2:00 PM on Wednesday 26 Nov 2014 (Local Time) from SAWH Reporting Station
Scattered Clouds Scattered Clouds  
Wind Chill: 38°   Ceiling: Unl
Heat Index: 46°   Visibility: 6mi
Dew Point: 36°   Wind: 26mph
Humidity: 66%   Direction: 230°SW
Pressure: 29.53"   Gusts: 38mph
Location:  64.23°S, 56.72°W
Report Text: SAWH 261400Z 23023G33KT 9999 SCT035 SCT200 08/02 Q1000
Loading
Personal Weather Stations






























Interactive Weather Map New forecast layout! Learn more

10-Day Weather Forecast

Advertisements
Track Severe Weather on mobile